Time;durP1;ratioP1;P1;durP2;ratioP2;P2;SDS_P1;SDS_P2;PMS_P1;PMS_P2;Temp;Humidity;BMP_temperature;BMP_pressure;BME280_temperature;BME280_humidity;BME280_pressure;Samples;Min_cycle;Max_cycle;Signal;HPM_P1;HPM_P2
2022/01/02 00:01:24;;;;;;;12.40;8.17;;;;;;;;;;5047768;28;20317;-80
2022/01/02 00:03:53;;;;;;;11.17;8.70;;;;;;;;;;5039842;28;20669;-80
2022/01/02 00:06:23;;;;;;;12.50;9.10;;;;;;;;;;5044705;28;20206;-79
2022/01/02 00:08:54;;;;;;;15.53;8.77;;;;;;;;;;5047026;28;20295;-80
2022/01/02 00:11:24;;;;;;;12.70;8.93;;;;;;;;;;5037653;28;20294;-80
2022/01/02 00:13:51;;;;;;;14.93;8.57;;;;;;;;;;5047354;28;20219;-80
2022/01/02 00:16:18;;;;;;;10.40;8.07;;;;;;;;;;5036992;28;20810;-80
2022/01/02 00:19:02;;;;;;;11.07;8.27;;;;;;;;;;5046117;28;20247;-80
2022/01/02 00:21:32;;;;;;;11.63;7.97;;;;;;;;;;5036776;28;20207;-80
2022/01/02 00:24:04;;;;;;;10.37;8.37;;;;;;;;;;5051224;28;20196;-80
2022/01/02 00:26:37;;;;;;;12.73;8.80;;;;;;;;;;5052922;28;20273;-80
2022/01/02 00:29:06;;;;;;;12.13;8.70;;;;;;;;;;5039337;28;20200;-80
2022/01/02 00:31:33;;;;;;;12.93;9.17;;;;;;;;;;5045256;28;20271;-80
2022/01/02 00:34:02;;;;;;;13.23;8.97;;;;;;;;;;5044568;28;20878;-80
2022/01/02 00:36:30;;;;;;;13.33;8.60;;;;;;;;;;5043319;28;20236;-80
2022/01/02 00:38:57;;;;;;;10.13;8.87;;;;;;;;;;5046357;28;20641;-80
2022/01/02 00:41:25;;;;;;;11.93;8.90;;;;;;;;;;5036236;28;20643;-79
2022/01/02 00:43:56;;;;;;;13.03;8.70;;;;;;;;;;5048772;28;20279;-80
2022/01/02 00:46:23;;;;;;;11.73;8.77;;;;;;;;;;5041129;28;20227;-80
2022/01/02 00:48:54;;;;;;;12.43;9.13;;;;;;;;;;5041060;28;20231;-80
2022/01/02 00:51:28;;;;;;;14.77;9.63;;;;;;;;;;5049461;28;20287;-80
2022/01/02 00:53:58;;;;;;;11.13;8.40;;;;;;;;;;5036370;28;20278;-80
2022/01/02 00:56:28;;;;;;;12.33;8.90;;;;;;;;;;5050759;28;20212;-87
2022/01/02 00:59:00;;;;;;;12.40;8.67;;;;;;;;;;5043826;28;20300;-86
2022/01/02 01:01:30;;;;;;;12.10;8.97;;;;;;;;;;5034637;28;20250;-86
2022/01/02 01:03:57;;;;;;;11.37;8.47;;;;;;;;;;5048488;28;20208;-86
2022/01/02 01:06:27;;;;;;;13.40;8.83;;;;;;;;;;5042087;28;20215;-86
2022/01/02 01:08:57;;;;;;;11.00;7.90;;;;;;;;;;5053303;28;20307;-87
2022/01/02 01:11:27;;;;;;;12.97;8.37;;;;;;;;;;5035630;28;20207;-87
2022/01/02 01:13:54;;;;;;;10.37;7.83;;;;;;;;;;5049547;28;20707;-87
2022/01/02 01:16:22;;;;;;;14.90;9.33;;;;;;;;;;5047779;28;20196;-86
2022/01/02 01:18:49;;;;;;;10.20;7.67;;;;;;;;;;5058341;28;20243;-86
2022/01/02 01:21:17;;;;;;;12.30;7.53;;;;;;;;;;5056871;28;20214;-86
2022/01/02 01:23:45;;;;;;;13.10;8.03;;;;;;;;;;5054604;28;20223;-86
2022/01/02 01:26:16;;;;;;;11.83;7.80;;;;;;;;;;5055501;28;20254;-86
2022/01/02 01:28:43;;;;;;;9.97;7.07;;;;;;;;;;5054888;28;20223;-86
2022/01/02 01:31:11;;;;;;;14.33;8.53;;;;;;;;;;5054240;28;20267;-87
2022/01/02 01:33:38;;;;;;;13.33;8.70;;;;;;;;;;5054045;28;20229;-86
2022/01/02 01:36:05;;;;;;;11.57;8.20;;;;;;;;;;5042281;28;20235;-87
2022/01/02 01:38:33;;;;;;;11.37;7.40;;;;;;;;;;5049242;28;20226;-86
2022/01/02 01:41:05;;;;;;;11.73;8.30;;;;;;;;;;5054743;28;20227;-86
2022/01/02 01:43:39;;;;;;;14.13;7.97;;;;;;;;;;5054964;28;20826;-86
2022/01/02 01:46:06;;;;;;;12.07;8.27;;;;;;;;;;5049337;28;20208;-86
2022/01/02 01:48:34;;;;;;;11.57;7.47;;;;;;;;;;5039461;28;20196;-85
2022/01/02 01:51:02;;;;;;;12.33;7.67;;;;;;;;;;5044655;28;20196;-86
2022/01/02 01:53:30;;;;;;;11.97;7.17;;;;;;;;;;5044118;28;20224;-86
2022/01/02 01:55:57;;;;;;;12.43;7.93;;;;;;;;;;5042521;28;20656;-86
2022/01/02 01:58:26;;;;;;;10.97;7.13;;;;;;;;;;5052323;28;20273;-86
2022/01/02 02:00:53;;;;;;;13.37;7.60;;;;;;;;;;5038416;28;20336;-86
2022/01/02 02:03:21;;;;;;;10.20;7.23;;;;;;;;;;5053727;28;20234;-86
2022/01/02 02:05:49;;;;;;;11.43;6.57;;;;;;;;;;5047261;28;20232;-87
2022/01/02 02:08:16;;;;;;;9.47;6.90;;;;;;;;;;5045307;28;20196;-86
2022/01/02 02:10:46;;;;;;;12.53;6.83;;;;;;;;;;5044657;28;20200;-86
2022/01/02 02:13:14;;;;;;;11.83;6.27;;;;;;;;;;5051969;28;20265;-86
2022/01/02 02:15:44;;;;;;;9.57;6.60;;;;;;;;;;5037091;28;20637;-87
2022/01/02 02:18:11;;;;;;;11.40;6.00;;;;;;;;;;5043542;28;20574;-86
2022/01/02 02:20:40;;;;;;;11.10;6.10;;;;;;;;;;5047254;28;20231;-86
2022/01/02 02:23:07;;;;;;;11.43;6.20;;;;;;;;;;5054044;28;20235;-86
2022/01/02 02:25:35;;;;;;;8.67;6.03;;;;;;;;;;5045073;28;20227;-86
2022/01/02 02:28:04;;;;;;;11.50;6.00;;;;;;;;;;5047904;28;20279;-86
2022/01/02 02:30:33;;;;;;;11.20;6.20;;;;;;;;;;5051858;28;20219;-86
2022/01/02 02:33:01;;;;;;;10.03;5.90;;;;;;;;;;5049260;28;20215;-86
2022/01/02 02:35:29;;;;;;;12.03;6.47;;;;;;;;;;5035139;28;20235;-87
2022/01/02 02:37:58;;;;;;;10.87;5.53;;;;;;;;;;5050237;28;20259;-87
2022/01/02 02:40:26;;;;;;;11.53;5.60;;;;;;;;;;5041280;28;20228;-87
2022/01/02 02:42:57;;;;;;;10.83;5.90;;;;;;;;;;5044213;28;20578;-87
2022/01/02 02:51:01;;;;;;;11.83;6.17;;;;;;;;;;5041514;28;20707;-87
2022/01/02 02:53:31;;;;;;;11.50;5.93;;;;;;;;;;5049661;28;20265;-86
2022/01/02 02:55:59;;;;;;;12.37;5.70;;;;;;;;;;5046372;28;20669;-87
2022/01/02 02:58:41;;;;;;;10.23;5.33;;;;;;;;;;5041522;28;20650;-86
2022/01/02 03:01:08;;;;;;;11.27;5.77;;;;;;;;;;5045345;28;20235;-87
2022/01/02 03:03:36;;;;;;;8.43;5.53;;;;;;;;;;5049288;28;20751;-87
2022/01/02 03:06:03;;;;;;;10.03;5.80;;;;;;;;;;5032362;28;20634;-87
2022/01/02 03:08:32;;;;;;;9.50;5.00;;;;;;;;;;5039785;28;20274;-86
2022/01/02 03:10:59;;;;;;;12.80;6.10;;;;;;;;;;5044711;28;20216;-86
2022/01/02 03:13:26;;;;;;;10.30;5.50;;;;;;;;;;5040022;28;20228;-86
2022/01/02 03:15:54;;;;;;;9.43;5.50;;;;;;;;;;5047387;28;20299;-87
2022/01/02 03:18:21;;;;;;;12.87;6.33;;;;;;;;;;5037915;28;20773;-86
2022/01/02 03:20:48;;;;;;;12.27;5.67;;;;;;;;;;5047915;28;20283;-87
2022/01/02 03:23:16;;;;;;;11.73;5.63;;;;;;;;;;5059196;28;20617;-86
2022/01/02 03:25:44;;;;;;;15.23;6.07;;;;;;;;;;5050129;28;20231;-87
2022/01/02 03:28:11;;;;;;;11.00;5.30;;;;;;;;;;5046321;28;20232;-87
2022/01/02 03:30:39;;;;;;;11.77;5.63;;;;;;;;;;5043343;28;20286;-86
2022/01/02 03:33:06;;;;;;;11.63;5.27;;;;;;;;;;5050943;28;20215;-86
2022/01/02 03:35:34;;;;;;;13.07;5.53;;;;;;;;;;5038642;28;20687;-87
2022/01/02 03:38:01;;;;;;;14.43;5.77;;;;;;;;;;5049769;28;20792;-87
2022/01/02 03:40:28;;;;;;;12.23;5.60;;;;;;;;;;5054857;28;20214;-86
2022/01/02 03:42:57;;;;;;;8.70;5.37;;;;;;;;;;5058067;28;20185;-86
2022/01/02 03:45:24;;;;;;;10.57;5.37;;;;;;;;;;5046969;28;20670;-86
2022/01/02 03:47:52;;;;;;;10.87;5.23;;;;;;;;;;5050119;28;20224;-87
2022/01/02 03:50:19;;;;;;;10.73;5.33;;;;;;;;;;5046577;28;20196;-87
2022/01/02 03:52:47;;;;;;;10.57;5.53;;;;;;;;;;5046003;28;20346;-87
2022/01/02 03:55:14;;;;;;;10.30;5.27;;;;;;;;;;5038745;28;20216;-86
2022/01/02 03:57:41;;;;;;;10.43;5.07;;;;;;;;;;5043266;28;20195;-86
2022/01/02 04:00:12;;;;;;;15.30;5.60;;;;;;;;;;5039368;28;20278;-86
2022/01/02 04:02:39;;;;;;;15.17;5.70;;;;;;;;;;5036580;28;20669;-86
2022/01/02 04:05:07;;;;;;;11.33;5.47;;;;;;;;;;5049672;28;20230;-86
2022/01/02 04:07:34;;;;;;;11.40;5.87;;;;;;;;;;5041342;28;20204;-86
2022/01/02 04:10:05;;;;;;;12.53;5.87;;;;;;;;;;5050372;28;20227;-87
2022/01/02 04:12:32;;;;;;;10.83;6.00;;;;;;;;;;5038189;28;20274;-87
2022/01/02 04:15:00;;;;;;;8.93;5.10;;;;;;;;;;5046774;28;20295;-86
2022/01/02 04:17:29;;;;;;;9.47;5.60;;;;;;;;;;5045633;28;20279;-87
2022/01/02 04:19:56;;;;;;;10.87;5.60;;;;;;;;;;5038979;28;20247;-86
2022/01/02 04:22:24;;;;;;;14.00;5.87;;;;;;;;;;5051131;28;20728;-86
2022/01/02 04:24:51;;;;;;;12.97;6.20;;;;;;;;;;5045582;28;20738;-86
2022/01/02 04:27:20;;;;;;;12.93;5.53;;;;;;;;;;5046965;28;20220;-87
2022/01/02 04:29:47;;;;;;;10.87;5.80;;;;;;;;;;5054130;28;20215;-87
2022/01/02 04:32:14;;;;;;;16.20;5.50;;;;;;;;;;5037279;28;20864;-86
2022/01/02 04:34:43;;;;;;;12.90;4.97;;;;;;;;;;5037961;28;20250;-86
2022/01/02 04:37:11;;;;;;;15.83;5.70;;;;;;;;;;5045594;28;20284;-86
2022/01/02 04:39:39;;;;;;;10.50;5.00;;;;;;;;;;5045114;28;20254;-86
2022/01/02 04:42:07;;;;;;;12.47;5.60;;;;;;;;;;5049122;28;20196;-87
2022/01/02 04:44:34;;;;;;;11.90;5.23;;;;;;;;;;5036823;28;20207;-86
2022/01/02 04:47:02;;;;;;;12.73;4.90;;;;;;;;;;5051236;28;20200;-87
2022/01/02 04:49:29;;;;;;;13.10;4.97;;;;;;;;;;5052717;28;20242;-86
2022/01/02 04:51:58;;;;;;;13.07;4.80;;;;;;;;;;5040261;28;20223;-87
2022/01/02 04:54:25;;;;;;;12.37;4.50;;;;;;;;;;5051040;28;20238;-86
2022/01/02 04:56:52;;;;;;;12.57;4.60;;;;;;;;;;5048903;28;20243;-87
2022/01/02 04:59:19;;;;;;;12.97;4.80;;;;;;;;;;5049860;28;20251;-86
2022/01/02 05:01:47;;;;;;;14.13;4.63;;;;;;;;;;5042111;28;20674;-87
2022/01/02 05:04:14;;;;;;;11.83;4.83;;;;;;;;;;5048609;28;20231;-87
2022/01/02 05:06:42;;;;;;;8.20;3.80;;;;;;;;;;5048065;28;20204;-87
2022/01/02 05:09:10;;;;;;;9.17;4.10;;;;;;;;;;5038714;28;20258;-86
2022/01/02 05:11:37;;;;;;;10.50;4.20;;;;;;;;;;5044002;28;20231;-86
2022/01/02 05:14:05;;;;;;;10.67;4.07;;;;;;;;;;5040726;28;20254;-86
2022/01/02 05:16:32;;;;;;;12.93;4.23;;;;;;;;;;5044954;28;20286;-86
2022/01/02 05:19:00;;;;;;;11.33;4.00;;;;;;;;;;5040382;28;20216;-87
2022/01/02 05:21:27;;;;;;;12.03;4.20;;;;;;;;;;5043565;28;20665;-87
2022/01/02 05:23:54;;;;;;;10.57;3.67;;;;;;;;;;5043781;28;20300;-86
2022/01/02 05:26:23;;;;;;;13.37;3.73;;;;;;;;;;5068727;28;20291;-86
2022/01/02 05:28:50;;;;;;;15.80;4.13;;;;;;;;;;5056647;28;20204;-86
2022/01/02 05:31:18;;;;;;;13.50;4.27;;;;;;;;;;5044316;28;20334;-87
2022/01/02 05:33:45;;;;;;;10.83;3.87;;;;;;;;;;5051520;28;20204;-86
2022/01/02 05:36:12;;;;;;;14.77;4.23;;;;;;;;;;5052975;28;20665;-86
2022/01/02 05:38:40;;;;;;;12.90;4.07;;;;;;;;;;5048157;28;20310;-87
2022/01/02 05:41:07;;;;;;;15.83;4.40;;;;;;;;;;5049426;28;20276;-86
2022/01/02 05:43:35;;;;;;;13.17;4.40;;;;;;;;;;5045420;28;20283;-86
2022/01/02 05:46:05;;;;;;;12.60;3.63;;;;;;;;;;5048795;28;20275;-86
2022/01/02 05:48:33;;;;;;;9.50;3.40;;;;;;;;;;5041508;28;20207;-87
2022/01/02 05:51:01;;;;;;;12.80;3.63;;;;;;;;;;5051641;28;20324;-86
2022/01/02 05:53:29;;;;;;;17.70;3.73;;;;;;;;;;5053045;28;20234;-86
2022/01/02 05:55:56;;;;;;;10.83;3.70;;;;;;;;;;5043552;28;20307;-86
2022/01/02 05:58:24;;;;;;;13.70;3.67;;;;;;;;;;5049592;28;20223;-86
2022/01/02 06:00:52;;;;;;;14.33;3.60;;;;;;;;;;5037333;28;20270;-86
2022/01/02 06:03:20;;;;;;;14.27;4.17;;;;;;;;;;5041722;28;20196;-86
2022/01/02 06:05:47;;;;;;;14.30;3.50;;;;;;;;;;5039342;28;20232;-87
2022/01/02 06:08:14;;;;;;;8.53;3.33;;;;;;;;;;5043650;28;20743;-87
2022/01/02 06:10:42;;;;;;;12.30;3.70;;;;;;;;;;5038255;28;20288;-86
2022/01/02 06:13:09;;;;;;;11.80;3.43;;;;;;;;;;5048701;28;20200;-86
2022/01/02 06:15:36;;;;;;;12.50;4.00;;;;;;;;;;5035735;28;20230;-86
2022/01/02 06:18:05;;;;;;;13.40;3.20;;;;;;;;;;5031889;28;20228;-87
2022/01/02 06:20:32;;;;;;;13.03;3.80;;;;;;;;;;5044047;28;20302;-86
2022/01/02 06:22:59;;;;;;;10.90;3.33;;;;;;;;;;5035709;28;20224;-87
2022/01/02 06:25:27;;;;;;;12.10;3.30;;;;;;;;;;5038978;28;20283;-87
2022/01/02 06:27:54;;;;;;;16.67;3.37;;;;;;;;;;5052203;28;20278;-87
2022/01/02 06:30:21;;;;;;;14.37;3.10;;;;;;;;;;5052827;28;20655;-86
2022/01/02 06:32:54;;;;;;;9.97;2.73;;;;;;;;;;5038962;28;20227;-87
2022/01/02 06:35:23;;;;;;;15.70;3.63;;;;;;;;;;5051519;28;20203;-87
2022/01/02 06:37:50;;;;;;;14.50;3.30;;;;;;;;;;5052085;28;20202;-87
2022/01/02 06:40:17;;;;;;;11.93;2.87;;;;;;;;;;5051526;28;20255;-87
2022/01/02 06:42:45;;;;;;;14.77;3.40;;;;;;;;;;5046886;28;20604;-86
2022/01/02 06:45:12;;;;;;;11.57;2.77;;;;;;;;;;5042209;28;20236;-86
2022/01/02 06:47:39;;;;;;;13.67;3.43;;;;;;;;;;5046698;28;20637;-87
2022/01/02 06:50:08;;;;;;;12.27;2.80;;;;;;;;;;5035485;28;20239;-86
2022/01/02 06:52:36;;;;;;;14.60;3.10;;;;;;;;;;5047431;28;20302;-86
2022/01/02 06:55:04;;;;;;;13.10;2.80;;;;;;;;;;5037449;28;20215;-87
2022/01/02 06:57:31;;;;;;;14.07;3.07;;;;;;;;;;5045706;28;20825;-87
2022/01/02 06:59:58;;;;;;;15.27;3.20;;;;;;;;;;5042359;28;20311;-86
2022/01/02 07:02:26;;;;;;;16.17;2.77;;;;;;;;;;5048883;28;20665;-86
2022/01/02 07:04:53;;;;;;;12.57;2.93;;;;;;;;;;5035462;28;20278;-87
2022/01/02 07:07:20;;;;;;;14.10;2.73;;;;;;;;;;5043080;28;20283;-86
2022/01/02 07:09:49;;;;;;;11.30;2.87;;;;;;;;;;5042473;28;20283;-87
2022/01/02 07:12:16;;;;;;;15.43;3.33;;;;;;;;;;5036235;28;20294;-87
2022/01/02 07:14:43;;;;;;;15.00;3.20;;;;;;;;;;5049844;28;20283;-87
2022/01/02 07:17:11;;;;;;;17.40;3.07;;;;;;;;;;5048662;28;20239;-86
2022/01/02 07:19:38;;;;;;;13.07;2.87;;;;;;;;;;5050269;28;20219;-87
2022/01/02 07:22:05;;;;;;;17.97;3.53;;;;;;;;;;5037811;28;20283;-87
2022/01/02 07:24:33;;;;;;;13.50;3.20;;;;;;;;;;5047737;28;20282;-87
2022/01/02 07:27:02;;;;;;;20.87;3.03;;;;;;;;;;5048194;28;20258;-87
2022/01/02 07:29:29;;;;;;;15.20;3.00;;;;;;;;;;5040740;28;20257;-86
2022/01/02 07:31:57;;;;;;;17.27;2.90;;;;;;;;;;5043089;28;20193;-87
2022/01/02 07:34:24;;;;;;;17.77;2.90;;;;;;;;;;5046113;28;20265;-87
2022/01/02 07:36:51;;;;;;;13.07;2.67;;;;;;;;;;5033926;28;20310;-86
2022/01/02 07:39:18;;;;;;;16.67;3.07;;;;;;;;;;5038244;28;20216;-86
2022/01/02 07:41:45;;;;;;;17.20;3.30;;;;;;;;;;5042206;28;20286;-87
2022/01/02 07:44:14;;;;;;;13.50;3.07;;;;;;;;;;5053868;28;20298;-87
2022/01/02 07:46:41;;;;;;;19.37;3.90;;;;;;;;;;5038009;28;20284;-86
2022/01/02 07:49:08;;;;;;;14.03;2.90;;;;;;;;;;5048012;28;20663;-86
2022/01/02 07:51:36;;;;;;;13.63;2.80;;;;;;;;;;5048275;28;20283;-86
2022/01/02 07:54:03;;;;;;;16.90;3.57;;;;;;;;;;5054021;28;20379;-87
2022/01/02 07:56:30;;;;;;;13.57;2.90;;;;;;;;;;5039829;28;20303;-87
2022/01/02 07:58:59;;;;;;;12.40;2.60;;;;;;;;;;5048754;28;20279;-86
2022/01/02 08:01:28;;;;;;;16.03;2.83;;;;;;;;;;5048821;28;20235;-86
2022/01/02 08:03:55;;;;;;;15.00;2.43;;;;;;;;;;5045495;28;20278;-87
2022/01/02 08:06:22;;;;;;;15.37;2.80;;;;;;;;;;5041967;28;20242;-87
2022/01/02 08:08:50;;;;;;;15.00;2.90;;;;;;;;;;5050868;28;20661;-87
2022/01/02 08:11:17;;;;;;;15.77;3.13;;;;;;;;;;5036765;28;20762;-86
2022/01/02 08:13:45;;;;;;;11.90;2.53;;;;;;;;;;5047493;28;20262;-87
2022/01/02 08:16:12;;;;;;;16.37;2.67;;;;;;;;;;5044890;28;20211;-87
2022/01/02 08:18:41;;;;;;;14.10;2.60;;;;;;;;;;5053681;28;20674;-86
2022/01/02 08:21:08;;;;;;;9.60;2.40;;;;;;;;;;5035682;28;20319;-87
2022/01/02 08:23:36;;;;;;;14.40;2.67;;;;;;;;;;5043882;28;20291;-87
2022/01/02 08:26:04;;;;;;;14.57;2.63;;;;;;;;;;5036666;28;20201;-87
2022/01/02 08:28:31;;;;;;;11.50;2.70;;;;;;;;;;5047942;28;20250;-87
2022/01/02 08:30:59;;;;;;;13.63;3.00;;;;;;;;;;5056259;28;20231;-87
2022/01/02 08:33:26;;;;;;;12.63;2.17;;;;;;;;;;5059031;28;20572;-86
2022/01/02 08:35:55;;;;;;;14.77;2.60;;;;;;;;;;5043664;28;20769;-87
2022/01/02 08:38:23;;;;;;;13.60;2.40;;;;;;;;;;5046513;28;20339;-87
2022/01/02 08:40:50;;;;;;;17.60;2.93;;;;;;;;;;5053566;28;20292;-87
2022/01/02 08:43:17;;;;;;;16.30;2.63;;;;;;;;;;5035100;28;20201;-86
2022/01/02 08:45:45;;;;;;;15.93;3.67;;;;;;;;;;5048687;28;20275;-87
2022/01/02 08:48:12;;;;;;;12.67;2.70;;;;;;;;;;5041222;28;20209;-87
2022/01/02 08:50:39;;;;;;;14.17;2.70;;;;;;;;;;5048104;28;20234;-89
2022/01/02 08:53:08;;;;;;;18.57;3.00;;;;;;;;;;5038060;28;20687;-89
2022/01/02 08:55:35;;;;;;;14.33;2.87;;;;;;;;;;5047021;28;20762;-90
2022/01/02 08:58:03;;;;;;;14.53;3.13;;;;;;;;;;5036709;28;20215;-87
2022/01/02 09:00:31;;;;;;;12.90;2.70;;;;;;;;;;5052163;28;20226;-87
2022/01/02 09:02:59;;;;;;;18.80;2.87;;;;;;;;;;5059934;28;20698;-87
2022/01/02 09:05:26;;;;;;;15.73;3.03;;;;;;;;;;5055013;28;20295;-87
2022/01/02 09:07:54;;;;;;;13.27;3.00;;;;;;;;;;5048597;28;20206;-88
2022/01/02 09:10:22;;;;;;;15.93;3.03;;;;;;;;;;5054195;28;20283;-87
2022/01/02 09:12:50;;;;;;;12.87;2.77;;;;;;;;;;5054239;28;20204;-88
2022/01/02 09:15:17;;;;;;;14.13;3.20;;;;;;;;;;5040995;28;20239;-87
2022/01/02 09:17:45;;;;;;;14.50;3.40;;;;;;;;;;5053161;28;20223;-87
2022/01/02 09:20:13;;;;;;;18.43;2.90;;;;;;;;;;5054901;28;20216;-87
2022/01/02 09:22:41;;;;;;;12.90;3.50;;;;;;;;;;5049003;28;20215;-87
2022/01/02 09:25:08;;;;;;;13.80;3.00;;;;;;;;;;5046700;28;20242;-87
2022/01/02 09:27:37;;;;;;;18.30;2.63;;;;;;;;;;5046958;28;20230;-88
2022/01/02 09:30:05;;;;;;;13.23;2.70;;;;;;;;;;5053106;28;20196;-87
2022/01/02 09:32:34;;;;;;;17.30;3.00;;;;;;;;;;5055708;28;20204;-87
2022/01/02 09:35:01;;;;;;;11.73;2.87;;;;;;;;;;5054471;28;20649;-87
2022/01/02 09:37:28;;;;;;;13.00;2.63;;;;;;;;;;5040599;28;20307;-85
2022/01/02 09:39:56;;;;;;;11.63;2.87;;;;;;;;;;5053166;28;20311;-85
2022/01/02 09:42:23;;;;;;;18.63;2.93;;;;;;;;;;5050329;28;20638;-84
2022/01/02 09:44:52;;;;;;;12.97;2.50;;;;;;;;;;5043232;28;20288;-84
2022/01/02 09:47:21;;;;;;;16.77;3.00;;;;;;;;;;5044555;28;20645;-84
2022/01/02 09:49:49;;;;;;;15.07;2.60;;;;;;;;;;5044472;28;20220;-85
2022/01/02 09:52:17;;;;;;;12.10;2.50;;;;;;;;;;5040563;28;20280;-84
2022/01/02 09:54:44;;;;;;;13.93;2.47;;;;;;;;;;5053740;28;20234;-85
2022/01/02 09:57:12;;;;;;;14.83;2.53;;;;;;;;;;5043200;28;20250;-84
2022/01/02 09:59:39;;;;;;;15.67;3.00;;;;;;;;;;5041064;28;20667;-84
2022/01/02 10:02:08;;;;;;;19.23;2.87;;;;;;;;;;5049049;28;20251;-84
2022/01/02 10:04:36;;;;;;;14.10;2.50;;;;;;;;;;5042273;28;20232;-84
2022/01/02 10:07:04;;;;;;;9.53;1.93;;;;;;;;;;5042712;28;20262;-85
2022/01/02 10:09:32;;;;;;;11.70;2.20;;;;;;;;;;5041360;28;20284;-85
2022/01/02 10:12:14;;;;;;;16.70;3.13;;;;;;;;;;5050386;28;20291;-85
2022/01/02 10:14:42;;;;;;;11.33;2.67;;;;;;;;;;5039145;28;20235;-85
2022/01/02 10:17:10;;;;;;;15.47;2.30;;;;;;;;;;5043388;28;20220;-85
2022/01/02 10:19:40;;;;;;;12.33;2.30;;;;;;;;;;5043525;28;20224;-85
2022/01/02 10:22:08;;;;;;;17.13;3.07;;;;;;;;;;5053862;28;20218;-85
2022/01/02 10:24:37;;;;;;;11.27;2.27;;;;;;;;;;5041566;28;20899;-85
2022/01/02 10:27:09;;;;;;;11.20;2.43;;;;;;;;;;5048600;28;20203;-86
2022/01/02 10:29:47;;;;;;;14.70;2.30;;;;;;;;;;5046241;28;20250;-85
2022/01/02 10:32:29;;;;;;;14.83;2.20;;;;;;;;;;5051508;28;20231;-84
2022/01/02 10:35:08;;;;;;;13.90;2.33;;;;;;;;;;5049626;28;20272;-85
2022/01/02 10:37:35;;;;;;;17.50;2.77;;;;;;;;;;5033728;28;20288;-84
2022/01/02 10:40:02;;;;;;;15.40;2.33;;;;;;;;;;5047864;28;20318;-83
2022/01/02 10:42:30;;;;;;;11.27;2.57;;;;;;;;;;5048994;28;20691;-82
2022/01/02 10:44:57;;;;;;;13.87;3.60;;;;;;;;;;5050051;28;20231;-82
2022/01/02 10:47:26;;;;;;;14.27;2.80;;;;;;;;;;5039886;28;21148;-83
2022/01/02 10:49:58;;;;;;;18.23;2.67;;;;;;;;;;5035661;28;20204;-83
2022/01/02 10:52:26;;;;;;;16.60;3.00;;;;;;;;;;5040677;28;20216;-83
2022/01/02 10:54:53;;;;;;;14.70;3.20;;;;;;;;;;5039779;28;20680;-82
2022/01/02 10:57:21;;;;;;;11.73;2.33;;;;;;;;;;5044922;28;20251;-83
2022/01/02 10:59:48;;;;;;;14.87;2.87;;;;;;;;;;5040468;28;20197;-83
2022/01/02 11:02:16;;;;;;;15.90;2.87;;;;;;;;;;5040287;28;20255;-86
2022/01/02 11:04:46;;;;;;;19.70;3.60;;;;;;;;;;5048010;28;20224;-83
2022/01/02 11:07:16;;;;;;;17.20;2.63;;;;;;;;;;5038488;28;20290;-83
2022/01/02 11:09:43;;;;;;;11.27;2.40;;;;;;;;;;5046301;28;20278;-82
2022/01/02 11:12:12;;;;;;;15.43;2.77;;;;;;;;;;5038910;28;20707;-83
2022/01/02 11:14:39;;;;;;;20.93;3.27;;;;;;;;;;5043315;28;20230;-83
2022/01/02 11:17:07;;;;;;;15.23;2.87;;;;;;;;;;5049032;28;20235;-82
2022/01/02 11:19:34;;;;;;;18.77;3.37;;;;;;;;;;5048189;28;20203;-82
2022/01/02 11:22:04;;;;;;;16.57;2.83;;;;;;;;;;5052550;28;20302;-81
2022/01/02 11:24:34;;;;;;;16.93;3.23;;;;;;;;;;5051002;28;20283;-81
2022/01/02 11:27:05;;;;;;;14.10;3.30;;;;;;;;;;5043393;28;20663;-82
2022/01/02 11:29:34;;;;;;;12.23;2.70;;;;;;;;;;5046031;28;20223;-82
2022/01/02 11:32:01;;;;;;;16.70;2.70;;;;;;;;;;5048236;28;20672;-82
2022/01/02 11:34:29;;;;;;;18.07;3.97;;;;;;;;;;5045404;28;20366;-82
2022/01/02 11:37:20;;;;;;;18.03;3.80;;;;;;;;;;5048913;28;20295;-83
2022/01/02 11:40:08;;;;;;;18.30;3.30;;;;;;;;;;5046580;28;20296;-83
2022/01/02 11:42:45;;;;;;;17.37;2.90;;;;;;;;;;5045142;28;20609;-83
2022/01/02 11:45:33;;;;;;;14.27;3.27;;;;;;;;;;5040975;28;20206;-83
2022/01/02 11:48:01;;;;;;;17.43;3.70;;;;;;;;;;5037333;28;20692;-83
2022/01/02 11:50:47;;;;;;;15.87;3.10;;;;;;;;;;5043016;28;20196;-83
2022/01/02 11:53:23;;;;;;;15.30;2.30;;;;;;;;;;5046841;28;20291;-82
2022/01/02 11:55:53;;;;;;;13.67;2.97;;;;;;;;;;5042385;28;20216;-83
2022/01/02 11:58:35;;;;;;;14.40;2.73;;;;;;;;;;5050509;28;20279;-83
2022/01/02 12:01:03;;;;;;;14.10;2.83;;;;;;;;;;5042165;28;20318;-83
2022/01/02 12:03:49;;;;;;;15.63;2.70;;;;;;;;;;5034554;28;20280;-82
2022/01/02 12:06:19;;;;;;;15.93;3.93;;;;;;;;;;5054597;28;20278;-82
2022/01/02 12:08:47;;;;;;;14.23;3.13;;;;;;;;;;5047430;28;20228;-82
2022/01/02 12:11:32;;;;;;;14.80;2.63;;;;;;;;;;5047874;28;20223;-82
2022/01/02 12:14:05;;;;;;;16.60;3.07;;;;;;;;;;5053988;28;20239;-83
2022/01/02 12:16:35;;;;;;;16.57;2.67;;;;;;;;;;5038477;28;20774;-82
2022/01/02 12:19:03;;;;;;;12.53;2.60;;;;;;;;;;5034676;28;20192;-81
2022/01/02 12:21:32;;;;;;;15.00;3.00;;;;;;;;;;5052712;28;20224;-81
2022/01/02 12:24:00;;;;;;;16.70;2.80;;;;;;;;;;5042431;28;20228;-81
2022/01/02 12:26:32;;;;;;;15.43;2.60;;;;;;;;;;5049382;28;20235;-81
2022/01/02 12:29:01;;;;;;;12.43;2.23;;;;;;;;;;5047231;28;20223;-81
2022/01/02 12:31:30;;;;;;;16.90;3.53;;;;;;;;;;5044459;28;20191;-81
2022/01/02 12:34:04;;;;;;;17.33;3.10;;;;;;;;;;5046439;28;20283;-81
2022/01/02 12:36:31;;;;;;;17.60;3.00;;;;;;;;;;5046213;28;20242;-82
2022/01/02 12:39:00;;;;;;;15.67;3.40;;;;;;;;;;5040159;28;20231;-81
2022/01/02 12:41:28;;;;;;;15.70;3.03;;;;;;;;;;5049570;28;20258;-82
2022/01/02 12:43:56;;;;;;;16.63;3.10;;;;;;;;;;5037626;28;20279;-81
2022/01/02 12:46:34;;;;;;;17.83;3.07;;;;;;;;;;5047286;28;20284;-81
2022/01/02 12:49:02;;;;;;;16.97;3.03;;;;;;;;;;5051124;28;20636;-82
2022/01/02 12:51:30;;;;;;;17.17;3.60;;;;;;;;;;5041806;28;20196;-84
2022/01/02 12:54:01;;;;;;;12.57;3.13;;;;;;;;;;5048105;28;20828;-84
2022/01/02 12:56:32;;;;;;;16.83;2.97;;;;;;;;;;5050844;28;20215;-84
2022/01/02 12:59:13;;;;;;;13.73;2.73;;;;;;;;;;5038490;28;20290;-85
2022/01/02 13:01:49;;;;;;;19.40;3.63;;;;;;;;;;5044423;28;20232;-85
2022/01/02 13:04:17;;;;;;;23.07;3.50;;;;;;;;;;5048004;28;20278;-85
2022/01/02 13:06:46;;;;;;;17.63;3.00;;;;;;;;;;5049082;28;20242;-86
2022/01/02 13:09:13;;;;;;;19.33;2.90;;;;;;;;;;5039463;28;20605;-87
2022/01/02 13:11:40;;;;;;;17.63;3.03;;;;;;;;;;5035275;28;20595;-89
2022/01/02 13:14:08;;;;;;;26.53;3.70;;;;;;;;;;5050771;28;20308;-87
2022/01/02 13:16:35;;;;;;;19.53;3.03;;;;;;;;;;5046363;28;20631;-86
2022/01/02 13:19:06;;;;;;;17.20;3.40;;;;;;;;;;5039916;28;20268;-87
2022/01/02 13:21:33;;;;;;;18.97;3.17;;;;;;;;;;5046631;28;20231;-85
2022/01/02 13:24:16;;;;;;;21.70;3.27;;;;;;;;;;5047597;28;20283;-87
2022/01/02 13:26:43;;;;;;;17.63;3.13;;;;;;;;;;5042540;28;20240;-88
2022/01/02 13:29:10;;;;;;;14.87;2.93;;;;;;;;;;5045250;28;20219;-87
2022/01/02 13:31:37;;;;;;;20.47;3.67;;;;;;;;;;5044863;28;20227;-87
2022/01/02 13:34:09;;;;;;;14.87;2.60;;;;;;;;;;5037544;28;20231;-87
2022/01/02 13:36:36;;;;;;;17.93;3.70;;;;;;;;;;5044318;28;20219;-87
2022/01/02 13:39:04;;;;;;;17.47;3.03;;;;;;;;;;5054634;28;20550;-86
2022/01/02 13:41:35;;;;;;;20.93;3.40;;;;;;;;;;5048273;28;20216;-86
2022/01/02 13:44:15;;;;;;;20.03;3.90;;;;;;;;;;5047784;28;20196;-87
2022/01/02 13:46:51;;;;;;;19.23;3.20;;;;;;;;;;5052765;28;20287;-88
2022/01/02 13:49:33;;;;;;;16.10;3.30;;;;;;;;;;5048153;28;20196;-87
2022/01/02 13:52:05;;;;;;;15.90;3.53;;;;;;;;;;5050896;28;20279;-87
2022/01/02 13:54:33;;;;;;;18.03;3.37;;;;;;;;;;5049520;28;20250;-88
2022/01/02 13:57:01;;;;;;;13.73;3.20;;;;;;;;;;5040919;28;20236;-87
2022/01/02 13:59:28;;;;;;;15.23;3.27;;;;;;;;;;5040498;28;20207;-87
2022/01/02 14:01:56;;;;;;;17.57;2.80;;;;;;;;;;5049217;28;20341;-87
2022/01/02 14:04:23;;;;;;;16.37;3.17;;;;;;;;;;5051326;28;20200;-86
2022/01/02 14:06:51;;;;;;;18.47;3.50;;;;;;;;;;5049313;28;20227;-86
2022/01/02 14:09:20;;;;;;;18.13;2.87;;;;;;;;;;5053063;28;20231;-86
2022/01/02 14:11:52;;;;;;;16.83;2.70;;;;;;;;;;5041757;28;20255;-87
2022/01/02 14:14:23;;;;;;;13.57;2.90;;;;;;;;;;5045860;28;20199;-86
2022/01/02 14:17:14;;;;;;;14.53;2.93;;;;;;;;;;5044290;28;20203;-86
2022/01/02 14:19:43;;;;;;;14.83;2.67;;;;;;;;;;5042592;28;20204;-86
2022/01/02 14:22:11;;;;;;;16.93;2.83;;;;;;;;;;5040658;28;20251;-87
2022/01/02 14:24:41;;;;;;;14.27;2.30;;;;;;;;;;5045675;28;20212;-86
2022/01/02 14:27:09;;;;;;;12.30;3.23;;;;;;;;;;5047418;28;20681;-86
2022/01/02 14:29:36;;;;;;;15.97;3.10;;;;;;;;;;5033884;28;20235;-86
2022/01/02 14:32:03;;;;;;;18.03;2.93;;;;;;;;;;5043946;28;20235;-86
2022/01/02 14:34:30;;;;;;;15.53;3.40;;;;;;;;;;5049763;28;20234;-86
2022/01/02 14:36:58;;;;;;;17.90;3.30;;;;;;;;;;5048891;28;20282;-87
2022/01/02 14:39:25;;;;;;;16.03;2.93;;;;;;;;;;5053413;28;20196;-86
2022/01/02 14:41:54;;;;;;;18.03;3.10;;;;;;;;;;5058376;28;20242;-86
2022/01/02 14:44:21;;;;;;;20.27;3.43;;;;;;;;;;5048131;28;20231;-86
2022/01/02 14:46:49;;;;;;;18.13;3.50;;;;;;;;;;5039026;28;20266;-87